Time;durP1;ratioP1;P1;durP2;ratioP2;P2;SDS_P1;SDS_P2;PMS_P1;PMS_P2;Temp;Humidity;BMP_temperature;BMP_pressure;BME280_temperature;BME280_humidity;BME280_pressure;Samples;Min_cycle;Max_cycle;Signal;HPM_P1;HPM_P2
2021/05/04 00:01:22;;;;;;;1.63;0.60;;;;;;;5.44;97.16;100615.91;4936317;29;20487;-63
2021/05/04 00:03:48;;;;;;;3.10;1.93;;;;;;;5.49;96.94;100615.09;4936625;29;20448;-63
2021/05/04 00:06:14;;;;;;;1.07;0.77;;;;;;;5.49;96.92;100615.94;4936464;29;20448;-64
2021/05/04 00:08:40;;;;;;;1.77;0.90;;;;;;;5.60;96.34;100605.19;4936273;29;20455;-64
2021/05/04 00:11:06;;;;;;;1.37;1.27;;;;;;;5.73;94.98;100605.47;4936090;29;20492;-64
2021/05/04 00:13:32;;;;;;;1.37;0.90;;;;;;;5.75;93.50;100603.31;4936035;29;20452;-64
2021/05/04 00:15:58;;;;;;;2.30;1.50;;;;;;;5.83;92.09;100607.34;4936285;29;20444;-64
2021/05/04 00:18:25;;;;;;;9.23;1.30;;;;;;;5.87;90.92;100603.06;4935975;29;20452;-64
2021/05/04 00:20:51;;;;;;;1.63;1.53;;;;;;;5.96;90.01;100596.09;4935984;29;20491;-64
2021/05/04 00:23:17;;;;;;;0.97;0.80;;;;;;;5.98;88.63;100588.59;4936191;29;20455;-64
2021/05/04 00:25:43;;;;;;;1.33;1.23;;;;;;;5.98;88.22;100591.28;4936157;29;20448;-64
2021/05/04 00:28:09;;;;;;;2.00;1.00;;;;;;;6.04;88.48;100589.38;4935389;29;20475;-65
2021/05/04 00:30:35;;;;;;;2.10;1.50;;;;;;;6.07;87.35;100578.09;4935933;29;20475;-64
2021/05/04 00:33:01;;;;;;;0.67;0.50;;;;;;;6.15;87.50;100585.59;4936070;29;20447;-64
2021/05/04 00:35:28;;;;;;;0.87;0.87;;;;;;;6.22;87.52;100580.75;4936286;29;20459;-64
2021/05/04 00:37:54;;;;;;;1.93;0.90;;;;;;;6.32;87.02;100572.63;4936281;29;20859;-64
2021/05/04 00:40:19;;;;;;;1.43;1.10;;;;;;;6.46;86.80;100566.69;4935973;29;20491;-65
2021/05/04 00:42:45;;;;;;;1.03;0.73;;;;;;;6.59;86.29;100552.66;4936012;29;20797;-64
2021/05/04 00:45:12;;;;;;;1.70;0.60;;;;;;;6.73;85.62;100558.25;4936115;29;20796;-64
2021/05/04 00:47:38;;;;;;;0.97;0.70;;;;;;;6.82;85.72;100552.03;4935993;29;20447;-64
2021/05/04 00:50:05;;;;;;;1.33;1.27;;;;;;;6.95;84.38;100549.78;4936469;29;20443;-64
2021/05/04 00:52:32;;;;;;;7.90;1.53;;;;;;;7.00;84.20;100536.31;4935927;29;20458;-65
2021/05/04 00:54:59;;;;;;;0.83;0.57;;;;;;;7.08;83.16;100539.25;4935672;29;20821;-64
2021/05/04 00:57:25;;;;;;;0.60;0.60;;;;;;;7.12;83.67;100539.47;4935896;29;20451;-65
2021/05/04 00:59:52;;;;;;;1.87;0.90;;;;;;;7.14;83.90;100529.22;4936059;29;20495;-64
2021/05/04 01:02:19;;;;;;;1.87;1.30;;;;;;;7.17;83.63;100520.59;4972566;23;20542;-71
2021/05/04 01:04:46;;;;;;;1.47;1.13;;;;;;;7.16;83.82;100515.47;4954953;28;20805;-72
2021/05/04 01:07:12;;;;;;;0.77;0.77;;;;;;;7.20;83.76;100513.84;4954910;28;20435;-72
2021/05/04 01:09:39;;;;;;;1.33;0.73;;;;;;;7.26;83.35;100505.44;4954769;28;20522;-72
2021/05/04 01:12:06;;;;;;;0.70;0.70;;;;;;;7.34;81.52;100504.81;4954459;28;20988;-71
2021/05/04 01:14:33;;;;;;;1.03;0.97;;;;;;;7.36;80.57;100496.47;4954488;28;20966;-71
2021/05/04 01:16:59;;;;;;;1.70;1.60;;;;;;;7.34;79.75;100491.34;4954896;28;20451;-70
2021/05/04 01:19:25;;;;;;;0.77;0.70;;;;;;;7.36;79.76;100484.91;4954737;28;20562;-69
2021/05/04 01:21:52;;;;;;;1.57;0.80;;;;;;;7.34;79.49;100477.09;4954729;28;20466;-70
2021/05/04 01:24:18;;;;;;;0.53;0.50;;;;;;;7.34;78.70;100469.00;4954723;28;20816;-69
2021/05/04 01:26:46;;;;;;;1.03;0.97;;;;;;;7.31;78.59;100462.31;4954701;28;20454;-71
2021/05/04 01:29:13;;;;;;;0.50;0.33;;;;;;;7.30;78.15;100455.31;4954403;28;20458;-71
2021/05/04 01:31:40;;;;;;;1.07;0.70;;;;;;;7.29;78.92;100464.47;4954573;28;20541;-70
2021/05/04 01:34:06;;;;;;;3.07;1.43;;;;;;;7.27;79.06;100450.47;4954681;28;20461;-70
2021/05/04 01:36:33;;;;;;;2.93;0.90;;;;;;;7.21;79.20;100445.41;4954603;28;20451;-70
2021/05/04 01:39:00;;;;;;;0.60;0.60;;;;;;;7.22;79.40;100442.44;4954661;28;20509;-70
2021/05/04 01:41:26;;;;;;;1.27;0.90;;;;;;;7.19;81.13;100434.13;4957869;28;20529;-70
2021/05/04 01:43:52;;;;;;;2.47;0.87;;;;;;;7.18;81.97;100427.94;4958063;28;20443;-71
2021/05/04 01:46:18;;;;;;;1.17;1.07;;;;;;;7.22;81.71;100431.66;4957997;28;20995;-70
2021/05/04 01:48:44;;;;;;;1.60;0.83;;;;;;;7.23;80.88;100425.19;4957922;28;20477;-70
2021/05/04 01:51:11;;;;;;;1.20;1.10;;;;;;;7.23;80.70;100419.00;4957499;28;20874;-70
2021/05/04 01:53:37;;;;;;;1.40;1.10;;;;;;;7.18;80.96;100409.06;4957506;28;20889;-71
2021/05/04 01:56:04;;;;;;;1.13;1.10;;;;;;;7.24;80.84;100410.63;4957707;28;20446;-70
2021/05/04 01:58:30;;;;;;;3.23;1.63;;;;;;;7.32;81.06;100409.22;4957791;28;20450;-70
2021/05/04 02:00:56;;;;;;;1.83;1.00;;;;;;;7.31;80.58;100402.22;4957468;28;20490;-70
2021/05/04 02:03:22;;;;;;;0.80;0.80;;;;;;;7.32;79.91;100391.16;4957728;28;20509;-70
2021/05/04 02:05:48;;;;;;;2.20;0.60;;;;;;;7.39;80.20;100388.13;4957645;28;20450;-70
2021/05/04 02:08:14;;;;;;;2.80;0.90;;;;;;;7.42;80.36;100386.75;4957604;28;20454;-70
2021/05/04 02:10:40;;;;;;;1.20;1.07;;;;;;;7.41;79.85;100374.38;4957506;28;20446;-71
2021/05/04 02:13:07;;;;;;;0.73;0.67;;;;;;;7.37;79.09;100366.06;4957214;28;20943;-71
2021/05/04 02:15:33;;;;;;;0.60;0.60;;;;;;;7.29;77.30;100354.00;4957502;28;20443;-71
2021/05/04 02:17:59;;;;;;;0.63;0.50;;;;;;;7.26;77.63;100351.91;4957522;28;20513;-71
2021/05/04 02:20:25;;;;;;;1.17;0.73;;;;;;;7.21;78.10;100349.22;4957329;28;20499;-72
2021/05/04 02:22:51;;;;;;;0.83;0.80;;;;;;;7.19;77.36;100343.34;4957421;28;20471;-72
2021/05/04 02:25:17;;;;;;;1.60;0.60;;;;;;;7.19;77.80;100335.25;4960619;28;20533;-71
2021/05/04 02:27:43;;;;;;;0.73;0.73;;;;;;;7.21;77.72;100334.97;4960298;28;20431;-72
2021/05/04 02:30:11;;;;;;;0.90;0.80;;;;;;;7.18;77.50;100322.09;4957266;28;20452;-71
2021/05/04 02:32:37;;;;;;;1.40;1.30;;;;;;;7.14;76.70;100319.16;4957132;28;20462;-72
2021/05/04 02:35:05;;;;;;;0.83;0.70;;;;;;;7.06;77.80;100311.69;4957197;28;21019;-72
2021/05/04 02:37:31;;;;;;;0.87;0.57;;;;;;;7.13;78.87;100298.69;4957055;28;20450;-72
2021/05/04 02:39:57;;;;;;;0.60;0.50;;;;;;;7.18;78.77;100303.22;4956985;28;20483;-72
2021/05/04 02:42:23;;;;;;;1.30;0.80;;;;;;;7.23;79.30;100295.88;4957010;28;20485;-71
2021/05/04 02:44:49;;;;;;;1.23;0.80;;;;;;;7.30;78.63;100288.28;4956965;28;20435;-71
2021/05/04 02:47:16;;;;;;;1.00;0.70;;;;;;;7.31;78.30;100279.09;4956918;28;20447;-71
2021/05/04 02:49:42;;;;;;;3.10;1.77;;;;;;;7.36;78.33;100269.34;4956844;28;20443;-71
2021/05/04 02:52:08;;;;;;;1.43;1.10;;;;;;;7.41;78.18;100266.59;4955767;28;20466;-71
2021/05/04 02:54:33;;;;;;;1.63;0.90;;;;;;;7.47;78.11;100262.75;4956407;28;20451;-71
2021/05/04 02:57:00;;;;;;;1.20;0.70;;;;;;;7.51;76.97;100258.38;4956757;28;20442;-71
2021/05/04 02:59:26;;;;;;;2.10;0.90;;;;;;;7.53;77.19;100250.84;4956591;28;20447;-71
2021/05/04 03:01:52;;;;;;;1.43;0.90;;;;;;;7.58;76.64;100240.78;4956287;28;20533;-71
2021/05/04 03:04:19;;;;;;;2.67;1.53;;;;;;;7.59;77.30;100228.09;4956581;28;20446;-71
2021/05/04 03:06:45;;;;;;;2.10;1.83;;;;;;;7.56;77.41;100223.28;4956165;28;20975;-71
2021/05/04 03:09:11;;;;;;;6.20;0.80;;;;;;;7.59;75.57;100215.44;4956516;28;20443;-71
2021/05/04 03:11:37;;;;;;;1.23;0.70;;;;;;;7.55;75.04;100210.91;4956328;28;20466;-71
2021/05/04 03:14:03;;;;;;;2.87;1.87;;;;;;;7.48;76.03;100210.44;4956430;28;20446;-71
2021/05/04 03:16:29;;;;;;;2.03;1.73;;;;;;;7.53;74.72;100203.13;4956273;28;20443;-71
2021/05/04 03:18:55;;;;;;;1.57;1.40;;;;;;;7.55;74.75;100192.84;4956278;28;20451;-70
2021/05/04 03:21:23;;;;;;;1.90;0.67;;;;;;;7.58;74.42;100186.88;4956082;28;21061;-71
2021/05/04 03:23:49;;;;;;;2.50;1.17;;;;;;;7.57;74.63;100185.28;4956219;28;20501;-72
2021/05/04 03:26:15;;;;;;;1.17;1.00;;;;;;;7.61;74.08;100181.97;4956168;28;20928;-71
2021/05/04 03:28:41;;;;;;;2.00;1.17;;;;;;;7.55;73.19;100176.66;4956206;28;20447;-71
2021/05/04 03:31:07;;;;;;;1.63;1.20;;;;;;;7.56;73.54;100169.38;4956029;28;20466;-72
2021/05/04 03:33:33;;;;;;;1.07;0.60;;;;;;;7.59;74.29;100156.13;4956016;28;20461;-72
2021/05/04 03:35:59;;;;;;;1.10;1.00;;;;;;;7.67;74.10;100151.19;4956038;28;20446;-71
2021/05/04 03:38:26;;;;;;;1.10;1.00;;;;;;;7.74;74.44;100148.91;4955967;28;20443;-71
2021/05/04 03:40:52;;;;;;;0.63;0.50;;;;;;;7.79;73.28;100144.25;4955768;28;20490;-72
2021/05/04 03:43:18;;;;;;;2.27;1.17;;;;;;;7.81;73.82;100131.28;4955545;28;20457;-71
2021/05/04 03:45:44;;;;;;;1.63;1.13;;;;;;;7.90;72.97;100130.59;4955797;28;20458;-71
2021/05/04 03:48:10;;;;;;;2.77;1.37;;;;;;;7.95;72.35;100122.44;4955822;28;20931;-71
2021/05/04 03:50:36;;;;;;;0.80;0.73;;;;;;;8.01;72.00;100113.97;4955780;28;20469;-71
2021/05/04 03:53:03;;;;;;;3.00;1.60;;;;;;;8.04;73.01;100107.97;4955663;28;20975;-72
2021/05/04 03:55:29;;;;;;;1.53;0.70;;;;;;;8.06;72.40;100099.59;4955694;28;20443;-71
2021/05/04 03:57:56;;;;;;;7.83;1.70;;;;;;;8.14;71.11;100104.28;4955680;28;20446;-71
2021/05/04 04:00:23;;;;;;;0.70;0.70;;;;;;;8.15;72.86;100094.34;4955148;28;20976;-71
2021/05/04 04:02:49;;;;;;;2.00;0.77;;;;;;;8.23;71.17;100082.84;4954877;28;20490;-71
2021/05/04 04:05:15;;;;;;;2.83;1.90;;;;;;;8.28;69.98;100080.06;4955563;28;20450;-72
2021/05/04 04:07:41;;;;;;;2.33;1.03;;;;;;;8.33;70.75;100069.97;4955230;28;20964;-71
2021/05/04 04:10:08;;;;;;;1.80;1.20;;;;;;;8.39;70.14;100069.91;4955212;28;20439;-71
2021/05/04 04:12:35;;;;;;;2.30;1.37;;;;;;;8.33;69.61;100064.56;4962694;28;20458;-71
2021/05/04 04:15:02;;;;;;;1.10;1.00;;;;;;;8.40;68.13;100060.69;4955482;28;20446;-72
2021/05/04 04:17:28;;;;;;;0.90;0.90;;;;;;;8.44;69.48;100051.72;4955416;28;20454;-72
2021/05/04 04:19:54;;;;;;;0.70;0.63;;;;;;;8.51;68.88;100045.91;4955578;28;20911;-72
2021/05/04 04:22:20;;;;;;;1.53;1.03;;;;;;;8.56;69.01;100043.91;4954976;28;20471;-72
2021/05/04 04:24:46;;;;;;;2.03;1.17;;;;;;;8.66;68.19;100042.09;4955239;28;20497;-71
2021/05/04 04:27:12;;;;;;;1.87;1.20;;;;;;;8.72;67.49;100030.09;4955316;28;20494;-71
2021/05/04 04:29:39;;;;;;;2.03;1.57;;;;;;;8.75;68.23;100034.91;4955200;28;20522;-72
2021/05/04 04:32:05;;;;;;;2.20;0.83;;;;;;;8.80;67.79;100032.09;4955137;28;20471;-71
2021/05/04 04:34:31;;;;;;;2.13;1.73;;;;;;;8.75;67.41;100030.28;4955129;28;20509;-71
2021/05/04 04:36:57;;;;;;;9.80;2.03;;;;;;;8.71;68.65;100018.50;4954915;28;20450;-71
2021/05/04 04:39:23;;;;;;;2.10;1.53;;;;;;;8.82;67.08;100013.69;4955069;28;20475;-71
2021/05/04 04:41:49;;;;;;;2.67;0.90;;;;;;;8.88;66.33;100022.47;4955036;28;20991;-68
2021/05/04 04:44:16;;;;;;;2.00;1.57;;;;;;;8.94;66.37;100010.44;4955100;28;20455;-69
2021/05/04 04:46:44;;;;;;;4.63;1.60;;;;;;;8.98;66.26;100009.53;4955067;28;20475;-69
2021/05/04 04:49:12;;;;;;;2.17;1.97;;;;;;;9.05;66.65;99998.31;4955100;28;20446;-71
2021/05/04 04:51:38;;;;;;;1.53;0.90;;;;;;;9.07;65.85;99991.53;4954830;28;20463;-71
2021/05/04 04:54:05;;;;;;;1.17;0.50;;;;;;;9.12;66.46;99993.31;4954898;28;20467;-71
2021/05/04 04:56:31;;;;;;;1.37;0.67;;;;;;;9.11;66.68;99980.88;4954986;28;20451;-72
2021/05/04 04:58:57;;;;;;;3.53;1.53;;;;;;;9.10;66.52;99968.47;4955006;28;20462;-71
2021/05/04 05:01:23;;;;;;;4.13;1.60;;;;;;;9.15;65.41;99962.16;4954596;28;20498;-72
2021/05/04 05:03:50;;;;;;;1.00;0.90;;;;;;;9.20;64.66;99957.44;4955031;28;20431;-71
2021/05/04 05:06:16;;;;;;;2.97;1.03;;;;;;;9.26;65.94;99960.81;4954901;28;20449;-71
2021/05/04 05:08:42;;;;;;;3.10;1.27;;;;;;;9.23;64.58;99953.31;4954583;28;20474;-71
2021/05/04 05:11:08;;;;;;;2.23;1.10;;;;;;;9.24;64.91;99933.28;4954517;28;20469;-72
2021/05/04 05:13:34;;;;;;;1.80;1.03;;;;;;;9.27;65.25;99938.09;4954799;28;20485;-72
2021/05/04 05:16:00;;;;;;;1.27;1.00;;;;;;;9.37;63.51;99929.72;4957713;28;20517;-71
2021/05/04 05:18:26;;;;;;;2.30;1.53;;;;;;;9.42;63.69;99928.78;4958493;28;20447;-71
2021/05/04 05:20:53;;;;;;;1.33;0.97;;;;;;;9.48;62.96;99920.25;4957416;28;20489;-71
2021/05/04 05:23:19;;;;;;;2.93;0.80;;;;;;;9.41;63.67;99909.09;4958421;28;20449;-72
2021/05/04 05:25:45;;;;;;;4.00;1.23;;;;;;;9.48;63.20;99900.53;4958414;28;20915;-71
2021/05/04 05:28:11;;;;;;;0.90;0.80;;;;;;;9.50;63.61;99879.38;4958316;28;20489;-71
2021/05/04 05:30:37;;;;;;;2.20;1.20;;;;;;;9.59;62.77;99889.13;4958372;28;20447;-71
2021/05/04 05:33:03;;;;;;;1.47;0.70;;;;;;;9.71;61.00;99866.91;4957953;28;21046;-75
2021/05/04 05:35:29;;;;;;;2.77;1.40;;;;;;;9.80;61.49;99862.34;4958364;28;20450;-73
2021/05/04 05:37:56;;;;;;;1.63;1.00;;;;;;;9.95;61.25;99863.00;4958292;29;20446;-71
2021/05/04 05:40:22;;;;;;;1.73;1.63;;;;;;;10.03;61.63;99848.72;4958103;28;20541;-71
2021/05/04 05:42:48;;;;;;;2.37;1.57;;;;;;;10.11;60.87;99853.34;4957866;28;20498;-72
2021/05/04 05:45:15;;;;;;;2.23;1.67;;;;;;;10.17;60.46;99835.84;4958162;28;20970;-72
2021/05/04 05:47:41;;;;;;;2.70;1.43;;;;;;;10.28;59.27;99841.78;4958025;28;20458;-72
2021/05/04 05:50:08;;;;;;;2.30;1.20;;;;;;;10.40;61.00;99831.09;4957655;28;20443;-72
2021/05/04 05:52:34;;;;;;;4.30;1.03;;;;;;;10.47;61.06;99830.63;4957604;28;20466;-73
2021/05/04 05:55:00;;;;;;;0.97;0.80;;;;;;;10.49;58.18;99810.25;4958158;28;20820;-72
2021/05/04 05:57:26;;;;;;;1.73;1.63;;;;;;;10.61;59.30;99812.31;4963647;28;20455;-72
2021/05/04 05:59:52;;;;;;;1.30;0.70;;;;;;;10.74;58.54;99795.09;4957485;28;21003;-72
2021/05/04 06:02:18;;;;;;;2.93;1.23;;;;;;;10.72;59.37;99788.41;4957609;28;20529;-70
2021/05/04 06:04:44;;;;;;;1.87;1.37;;;;;;;10.85;58.40;99787.44;4957653;28;20442;-72
2021/05/04 06:07:10;;;;;;;0.90;0.77;;;;;;;11.00;57.65;99777.97;4957707;28;20502;-72
2021/05/04 06:09:36;;;;;;;1.37;0.83;;;;;;;11.13;58.78;99768.84;4957280;28;20444;-71
2021/05/04 06:12:03;;;;;;;1.80;1.00;;;;;;;11.24;56.14;99770.06;4957553;28;20467;-72
2021/05/04 06:14:30;;;;;;;2.70;2.03;;;;;;;11.32;56.45;99766.53;4957555;28;20462;-73
2021/05/04 06:16:56;;;;;;;1.70;0.70;;;;;;;11.43;56.43;99755.34;4957076;28;20940;-73
2021/05/04 06:19:22;;;;;;;3.07;1.53;;;;;;;11.48;56.52;99742.38;4957451;28;20457;-73
2021/05/04 06:21:48;;;;;;;1.77;1.07;;;;;;;11.50;57.25;99742.03;4957426;28;20495;-73
2021/05/04 06:24:14;;;;;;;2.00;1.47;;;;;;;11.60;56.12;99728.13;4957391;28;20442;-72
2021/05/04 06:26:40;;;;;;;3.23;1.50;;;;;;;11.68;55.25;99721.81;4956841;28;20979;-71
2021/05/04 06:29:08;;;;;;;1.53;1.23;;;;;;;11.77;55.75;99714.41;4957308;28;20447;-71
2021/05/04 06:31:34;;;;;;;1.83;1.67;;;;;;;11.76;56.59;99693.84;4957156;28;20557;-72
2021/05/04 06:34:02;;;;;;;4.10;1.40;;;;;;;11.79;56.10;99686.97;4957062;28;20517;-72
2021/05/04 06:36:28;;;;;;;1.87;1.40;;;;;;;11.82;55.98;99683.56;4957019;29;20457;-71
2021/05/04 06:38:54;;;;;;;2.07;1.40;;;;;;;11.80;56.62;99675.78;4957137;28;20450;-72
2021/05/04 06:41:20;;;;;;;1.63;1.07;;;;;;;11.93;54.86;99656.88;4956920;28;20589;-71
2021/05/04 06:43:46;;;;;;;2.07;1.60;;;;;;;12.00;55.78;99657.16;4956703;28;20458;-71
2021/05/04 06:46:13;;;;;;;0.93;0.83;;;;;;;12.04;54.78;99648.00;4957034;28;20450;-72
2021/05/04 06:48:38;;;;;;;2.00;1.53;;;;;;;12.01;56.38;99650.59;4956570;28;20455;-72
2021/05/04 06:51:05;;;;;;;1.00;1.00;;;;;;;12.00;56.63;99643.56;4956825;28;20580;-72
2021/05/04 06:53:31;;;;;;;0.70;0.67;;;;;;;12.08;54.81;99648.91;4956826;28;20446;-72
2021/05/04 06:55:57;;;;;;;2.30;1.40;;;;;;;12.14;54.50;99652.22;4956621;28;20981;-73
2021/05/04 06:58:23;;;;;;;6.63;1.40;;;;;;;12.24;55.09;99635.50;4956697;28;20544;-72
2021/05/04 07:00:48;;;;;;;1.03;0.93;;;;;;;12.23;54.10;99657.56;4956409;28;20897;-72
2021/05/04 07:03:15;;;;;;;2.00;1.47;;;;;;;12.25;54.28;99637.06;4956406;28;20943;-72
2021/05/04 07:05:41;;;;;;;3.30;1.70;;;;;;;12.25;53.89;99658.00;4956583;28;20458;-72
2021/05/04 07:08:08;;;;;;;1.07;0.93;;;;;;;12.19;53.33;99627.56;4956687;28;20443;-72
2021/05/04 07:10:34;;;;;;;1.33;1.10;;;;;;;12.22;54.33;99631.50;4956550;28;20545;-72
2021/05/04 07:13:01;;;;;;;1.80;0.70;;;;;;;12.19;54.38;99630.28;4956149;28;20471;-72
2021/05/04 07:15:27;;;;;;;1.20;0.83;;;;;;;12.24;53.81;99659.13;4956580;28;20446;-72
2021/05/04 07:17:53;;;;;;;2.67;1.63;;;;;;;12.23;54.55;99650.22;4956198;28;20498;-72
2021/05/04 07:20:21;;;;;;;1.53;0.97;;;;;;;12.25;53.74;99677.00;4956068;28;20486;-72
2021/05/04 07:22:53;;;;;;;2.33;1.30;;;;;;;12.23;54.67;99685.50;4957648;28;20476;-72
2021/05/04 07:25:20;;;;;;;1.30;0.83;;;;;;;12.20;55.17;99696.22;4956513;28;20574;-72
2021/05/04 07:27:46;;;;;;;5.40;1.10;;;;;;;12.14;55.84;99684.00;4956370;28;20462;-72
2021/05/04 07:30:13;;;;;;;2.00;0.90;;;;;;;11.99;58.42;99685.38;4955796;28;20955;-72
2021/05/04 07:32:39;;;;;;;1.00;0.83;;;;;;;11.87;61.68;99694.28;4956034;28;20486;-71
2021/05/04 07:35:06;;;;;;;1.60;1.27;;;;;;;11.57;64.33;99679.94;4956004;28;20451;-71
2021/05/04 07:37:35;;;;;;;3.07;2.50;;;;;;;11.18;70.91;99668.38;4955057;28;20451;-71
2021/05/04 07:40:01;;;;;;;0.70;0.57;;;;;;;10.87;70.97;99647.00;4955933;28;20577;-71
2021/05/04 07:42:27;;;;;;;3.07;1.00;;;;;;;10.73;74.20;99647.25;4955865;28;20477;-71
2021/05/04 07:44:53;;;;;;;2.80;1.37;;;;;;;10.58;73.88;99648.56;4961643;28;20446;-72
2021/05/04 07:47:19;;;;;;;2.70;1.10;;;;;;;10.46;76.28;99644.94;4955914;28;20454;-72
2021/05/04 07:49:47;;;;;;;1.90;1.33;;;;;;;10.46;74.04;99631.41;4955796;28;20449;-71
2021/05/04 07:52:13;;;;;;;1.90;1.67;;;;;;;10.51;74.02;99625.81;4954704;28;20482;-72
2021/05/04 07:54:41;;;;;;;1.00;1.00;;;;;;;10.59;73.81;99611.47;4955550;28;20434;-72
2021/05/04 07:57:07;;;;;;;3.13;1.43;;;;;;;10.70;72.39;99618.09;4955692;28;20459;-72
2021/05/04 07:59:33;;;;;;;1.10;0.97;;;;;;;10.79;71.91;99599.88;4955217;28;20831;-71
2021/05/04 08:02:01;;;;;;;0.70;0.60;;;;;;;10.83;71.63;99608.94;4955169;28;20494;-72
2021/05/04 08:04:28;;;;;;;3.00;2.13;;;;;;;10.92;71.97;99600.78;4955582;28;20451;-71
2021/05/04 08:06:55;;;;;;;1.67;1.00;;;;;;;11.06;71.89;99586.97;4955470;28;20493;-71
2021/05/04 08:09:22;;;;;;;2.83;1.77;;;;;;;11.33;71.06;99588.38;4955496;28;20538;-72
2021/05/04 08:11:48;;;;;;;1.90;1.23;;;;;;;11.62;67.84;99576.69;4955760;28;20533;-72
2021/05/04 08:14:15;;;;;;;3.10;1.47;;;;;;;11.84;69.42;99570.91;4955963;28;20447;-72
2021/05/04 08:16:41;;;;;;;1.40;0.83;;;;;;;12.07;68.48;99574.03;4955374;28;20997;-73
2021/05/04 08:19:07;;;;;;;1.57;1.07;;;;;;;12.15;67.46;99575.06;4955388;28;20453;-73
2021/05/04 08:21:34;;;;;;;2.00;1.40;;;;;;;12.17;64.69;99561.94;4954816;28;20501;-73
2021/05/04 08:24:00;;;;;;;1.53;1.30;;;;;;;12.18;66.95;99557.31;4955371;28;20450;-73
2021/05/04 08:26:26;;;;;;;2.33;1.23;;;;;;;12.19;63.70;99548.84;4955466;28;20447;-73
2021/05/04 08:28:54;;;;;;;1.63;0.70;;;;;;;12.23;63.96;99549.75;4955699;28;20454;-73
2021/05/04 08:31:20;;;;;;;7.30;1.63;;;;;;;12.24;62.05;99550.53;4955420;28;20995;-71
2021/05/04 08:33:46;;;;;;;1.47;0.80;;;;;;;12.26;62.41;99538.22;4955204;28;20466;-70
2021/05/04 08:36:12;;;;;;;1.17;0.93;;;;;;;12.38;64.07;99540.13;4954583;28;20490;-73
2021/05/04 08:38:38;;;;;;;0.90;0.73;;;;;;;12.43;62.57;99531.75;4955115;28;20501;-70
2021/05/04 08:41:07;;;;;;;1.87;0.87;;;;;;;12.52;64.46;99532.44;4953617;28;20486;-71
2021/05/04 08:43:34;;;;;;;1.90;1.00;;;;;;;12.68;61.91;99529.06;4955112;28;20501;-71
2021/05/04 08:46:02;;;;;;;1.00;1.00;;;;;;;12.88;61.39;99519.94;4954856;28;20942;-71
2021/05/04 08:48:29;;;;;;;2.03;1.10;;;;;;;13.08;61.70;99512.78;4955109;28;20450;-71
2021/05/04 08:50:57;;;;;;;0.67;0.50;;;;;;;13.32;58.90;99515.44;4958135;28;20438;-71
2021/05/04 08:53:23;;;;;;;0.70;0.70;;;;;;;13.39;58.46;99520.31;4958998;28;20470;-71
2021/05/04 08:55:49;;;;;;;1.33;0.87;;;;;;;13.50;57.68;99518.69;4959146;28;20454;-71
2021/05/04 08:58:15;;;;;;;1.27;1.07;;;;;;;13.62;57.78;99510.44;4958911;28;20435;-70
2021/05/04 09:00:41;;;;;;;0.80;0.70;;;;;;;13.83;56.19;99504.78;4958572;28;20490;-71
2021/05/04 09:03:12;;;;;;;1.23;0.80;;;;;;;14.03;56.77;99497.53;4958789;28;20450;-70
2021/05/04 09:05:41;;;;;;;1.43;0.90;;;;;;;14.32;56.16;99493.56;4958861;28;20434;-70
2021/05/04 09:08:32;;;;;;;1.07;0.97;;;;;;;14.46;54.62;99492.31;4958757;28;20449;-71
2021/05/04 09:11:16;;;;;;;1.57;0.80;;;;;;;14.36;52.60;99501.81;4958704;28;20438;-71
2021/05/04 09:13:48;;;;;;;0.80;0.57;;;;;;;14.38;54.15;99486.69;4958607;28;20482;-71
2021/05/04 09:16:24;;;;;;;1.47;0.67;;;;;;;14.54;53.92;99478.53;4958624;29;20478;-71
2021/05/04 09:21:30;;;;;;;0.90;0.70;;;;;;;15.05;53.52;99477.66;4958147;28;20481;-71
2021/05/04 09:23:56;;;;;;;1.43;1.00;;;;;;;15.09;52.30;99462.16;4958593;28;20439;-71
2021/05/04 09:26:31;;;;;;;1.50;0.80;;;;;;;15.18;51.21;99464.69;4958486;28;20449;-70
2021/05/04 09:28:58;;;;;;;1.37;0.97;;;;;;;15.11;49.29;99471.59;4958500;28;20426;-71
2021/05/04 09:31:25;;;;;;;1.53;0.90;;;;;;;14.85;50.27;99458.56;4960463;28;20466;-72
2021/05/04 09:33:52;;;;;;;1.57;1.40;;;;;;;14.76;49.19;99462.66;4961612;29;20443;-71
2021/05/04 09:36:43;;;;;;;1.07;0.60;;;;;;;14.62;48.67;99446.78;4958346;28;20443;-71
2021/05/04 09:39:12;;;;;;;0.60;0.60;;;;;;;14.59;48.90;99439.31;4957891;28;20426;-70
2021/05/04 09:41:38;;;;;;;1.97;0.93;;;;;;;14.51;49.42;99445.75;4957596;28;20864;-74
2021/05/04 09:44:05;;;;;;;1.20;0.90;;;;;;;14.56;49.21;99448.19;4957686;28;20446;-75
2021/05/04 09:46:48;;;;;;;1.63;0.73;;;;;;;14.63;49.40;99442.91;4957538;28;20438;-73
2021/05/04 09:49:28;;;;;;;1.63;1.10;;;;;;;14.70;49.05;99443.06;4957810;28;20458;-73
2021/05/04 09:52:14;;;;;;;3.43;1.40;;;;;;;14.88;48.53;99441.50;4957344;28;20478;-72
2021/05/04 09:54:40;;;;;;;1.33;0.77;;;;;;;15.06;49.13;99438.38;4957417;28;20807;-73
2021/05/04 09:57:34;;;;;;;1.83;0.80;;;;;;;15.13;47.67;99443.94;4957046;28;20458;-73
2021/05/04 10:00:01;;;;;;;0.93;0.73;;;;;;;15.02;48.03;99426.59;4956642;28;20455;-73
2021/05/04 10:02:29;;;;;;;1.17;1.00;;;;;;;15.06;48.61;99422.78;4956526;28;21016;-73
2021/05/04 10:04:55;;;;;;;1.53;0.77;;;;;;;15.08;49.46;99427.88;4956922;28;20510;-73
2021/05/04 10:07:22;;;;;;;1.73;1.00;;;;;;;15.14;48.29;99429.97;4957235;28;20447;-74
2021/05/04 10:09:49;;;;;;;1.67;0.60;;;;;;;15.06;47.96;99419.28;4956920;28;20823;-74
2021/05/04 10:12:16;;;;;;;0.93;0.80;;;;;;;15.03;49.26;99422.72;4956907;28;20474;-74
2021/05/04 10:14:42;;;;;;;1.03;0.93;;;;;;;15.18;49.08;99423.78;4950062;28;20515;-75
2021/05/04 10:17:09;;;;;;;0.60;0.50;;;;;;;15.33;48.13;99412.78;4937565;29;21004;-74
2021/05/04 10:19:37;;;;;;;0.60;0.50;;;;;;;15.71;48.50;99416.56;4937350;29;20984;-74
2021/05/04 10:22:05;;;;;;;0.80;0.60;;;;;;;15.86;46.53;99415.69;4937444;29;20483;-73
2021/05/04 10:24:33;;;;;;;0.60;0.60;;;;;;;15.71;46.11;99416.56;4937673;29;20453;-74
2021/05/04 10:27:01;;;;;;;0.50;0.40;;;;;;;15.61;48.13;99400.78;4937539;29;20456;-75
2021/05/04 10:29:28;;;;;;;2.20;0.90;;;;;;;15.50;47.80;99408.00;4937389;29;20447;-73
2021/05/04 10:31:54;;;;;;;1.13;1.03;;;;;;;15.24;48.60;99401.31;4937113;29;20460;-75
2021/05/04 10:34:33;;;;;;;0.97;0.50;;;;;;;15.13;48.25;99416.66;4937148;29;20455;-73
2021/05/04 10:37:00;;;;;;;1.23;0.70;;;;;;;15.10;47.62;99417.41;4937382;29;20452;-74
2021/05/04 10:39:34;;;;;;;0.80;0.80;;;;;;;15.10;48.25;99404.56;4937083;29;20447;-75
2021/05/04 10:42:00;;;;;;;1.10;0.97;;;;;;;15.04;48.56;99408.69;4937197;29;20487;-74
2021/05/04 10:44:27;;;;;;;1.07;0.53;;;;;;;14.93;48.23;99413.16;4937429;29;20454;-73
2021/05/04 10:46:54;;;;;;;0.80;0.70;;;;;;;14.80;48.76;99415.25;4937381;29;20443;-74
2021/05/04 10:49:56;;;;;;;0.67;0.40;;;;;;;14.79;49.01;99429.25;4937205;29;20490;-75
2021/05/04 10:52:56;;;;;;;0.60;0.50;;;;;;;14.66;50.71;99411.44;4937028;29;20474;-73
2021/05/04 10:55:25;;;;;;;0.60;0.60;;;;;;;14.56;50.36;99415.50;4936825;29;20536;-71
2021/05/04 10:58:18;;;;;;;0.73;0.70;;;;;;;14.46;50.33;99405.13;4936985;29;20502;-74
2021/05/04 11:00:51;;;;;;;1.37;0.70;;;;;;;14.46;50.81;99411.38;4902460;29;20495;-73
2021/05/04 11:03:44;;;;;;;0.80;0.60;;;;;;;14.41;50.31;99416.31;4936649;29;20432;-74
2021/05/04 11:06:11;;;;;;;0.50;0.50;;;;;;;14.38;49.60;99391.34;4937258;29;20436;-73
2021/05/04 11:09:26;;;;;;;1.63;0.60;;;;;;;14.48;49.81;99402.84;4936877;29;20455;-74
2021/05/04 11:11:53;;;;;;;0.70;0.50;;;;;;;14.79;50.45;99394.59;4877313;29;20868;-75
2021/05/04 11:14:36;;;;;;;0.60;0.50;;;;;;;15.17;48.92;99384.00;4923278;29;20464;-73
2021/05/04 11:17:10;;;;;;;0.83;0.83;;;;;;;15.59;47.78;99398.44;4937682;29;20917;-73
2021/05/04 11:19:40;;;;;;;0.50;0.43;;;;;;;15.77;47.34;99400.72;4937827;29;20431;-73
2021/05/04 11:22:18;;;;;;;0.70;0.50;;;;;;;15.84;48.15;99390.66;4942836;28;20503;-73
2021/05/04 11:24:46;;;;;;;2.70;0.60;;;;;;;15.83;47.82;99402.75;4936276;29;20475;-73
2021/05/04 11:27:33;;;;;;;0.80;0.80;;;;;;;15.78;47.87;99407.75;4936678;29;20458;-73
2021/05/04 11:30:02;;;;;;;0.70;0.47;;;;;;;15.93;49.21;99409.53;4937239;29;20435;-73
2021/05/04 11:32:40;;;;;;;0.83;0.60;;;;;;;15.94;48.15;99399.41;4937279;29;20482;-74
2021/05/04 11:35:09;;;;;;;1.17;0.60;;;;;;;15.93;49.40;99419.66;4936706;29;20447;-73
2021/05/04 11:37:39;;;;;;;0.60;0.60;;;;;;;15.94;49.61;99421.25;4936343;29;20447;-73
2021/05/04 11:40:14;;;;;;;0.80;0.53;;;;;;;15.92;49.78;99418.09;4936224;29;20428;-73